Time;durP1;ratioP1;P1;durP2;ratioP2;P2;SDS_P1;SDS_P2;PMS_P1;PMS_P2;Temp;Humidity;BMP_temperature;BMP_pressure;BME280_temperature;BME280_humidity;BME280_pressure;Samples;Min_cycle;Max_cycle;Signal;HPM_P1;HPM_P2
2022/09/21 00:01:29;;;;;;;;;;;13.00;51.30;;;8.49;79.46;96138.72;4973957;28;19913;-45
2022/09/21 00:04:10;;;;;;;;;;;12.90;51.30;;;8.43;79.85;96137.84;4991811;28;19910;-45
2022/09/21 00:06:36;;;;;;;;;;;12.90;51.40;;;8.40;80.34;96140.13;4987091;28;20395;-44
2022/09/21 00:09:08;;;;;;;;;;;12.80;51.40;;;8.34;80.50;96137.38;4971219;28;19918;-45
2022/09/21 00:11:35;;;;;;;;;;;12.80;51.50;;;8.30;80.93;96135.41;4975814;28;19963;-44
2022/09/21 00:14:11;;;;;;;;;;;12.70;51.50;;;8.24;81.55;96134.53;4991198;28;26631;-44
2022/09/21 00:16:40;;;;;;;;;;;12.70;51.60;;;8.19;81.73;96136.25;4991675;28;19949;-44
2022/09/21 00:19:10;;;;;;;;;;;12.70;51.70;;;8.12;82.07;96141.72;4989864;28;19909;-45
2022/09/21 00:21:39;;;;;;;;;;;12.60;51.70;;;8.03;82.89;96140.47;4989565;28;20070;-45
2022/09/21 00:24:06;;;;;;;;;;;12.60;51.90;;;8.00;83.16;96138.28;4983838;28;19909;-45
2022/09/21 00:26:35;;;;;;;;;;;12.50;51.90;;;7.94;83.18;96129.41;4991399;28;19913;-44
2022/09/21 00:29:16;;;;;;;;;;;12.40;52.00;;;7.92;83.46;96131.47;4988177;28;19927;-44
2022/09/21 00:31:44;;;;;;;;;;;12.40;52.10;;;7.92;83.19;96134.13;4980257;28;19917;-44
2022/09/21 00:34:13;;;;;;;;;;;12.30;52.20;;;7.94;83.22;96131.25;4971666;28;19921;-44
2022/09/21 00:36:38;;;;;;;;;;;12.30;52.30;;;7.92;83.23;96122.72;4984423;28;19913;-44
2022/09/21 00:39:11;;;;;;;;;;;12.30;52.40;;;7.93;82.64;96122.50;4991543;28;20545;-44
2022/09/21 00:41:37;;;;;;;;;;;12.30;52.50;;;7.93;83.22;96117.19;4988746;28;19952;-44
2022/09/21 00:44:32;;;;;;;;;;;12.30;52.60;;;7.89;82.92;96121.31;4971976;28;19940;-45
2022/09/21 00:47:27;;;;;;;;;;;12.20;52.50;;;7.85;83.25;96117.53;4972800;28;19964;-44
2022/09/21 00:49:58;;;;;;;;;;;12.20;52.60;;;7.82;83.35;96121.47;4964087;28;20311;-45
2022/09/21 00:52:29;;;;;;;;;;;12.20;52.80;;;7.80;83.18;96118.25;4989635;28;19936;-47
2022/09/21 00:55:16;;;;;;;;;;;12.20;52.90;;;7.76;83.47;96116.28;4988758;28;19909;-47
2022/09/21 00:57:48;;;;;;;;;;;12.20;53.00;;;7.67;83.81;96123.00;4988182;28;20404;-44
2022/09/21 01:00:14;;;;;;;;;;;12.10;53.00;;;7.65;83.75;96121.38;4956483;28;20324;-44
2022/09/21 01:02:45;;;;;;;;;;;12.10;53.00;;;7.63;84.00;96117.34;4990794;28;19963;-44
2022/09/21 01:05:11;;;;;;;;;;;12.10;53.10;;;7.60;84.03;96097.41;4989701;28;19963;-47
2022/09/21 01:07:46;;;;;;;;;;;12.10;53.30;;;7.56;84.07;96111.38;4983388;28;19917;-44
2022/09/21 01:10:20;;;;;;;;;;;12.00;53.30;;;7.57;84.15;96110.31;4965652;28;19909;-44
2022/09/21 01:13:38;;;;;;;;;;;12.00;53.50;;;7.57;84.31;96107.66;4972029;28;19944;-44
2022/09/21 01:17:02;;;;;;;;;;;12.00;53.70;;;7.55;84.36;96107.91;4995004;28;20365;-44
2022/09/21 01:19:42;;;;;;;;;;;11.90;53.80;;;7.56;84.37;96106.88;4940223;29;19917;-47
2022/09/21 01:22:53;;;;;;;;;;;11.90;54.00;;;7.54;84.35;96100.97;4967549;28;19914;-44
2022/09/21 01:25:52;;;;;;;;;;;11.90;54.20;;;7.54;84.44;96102.84;4971588;28;19964;-45
2022/09/21 01:28:39;;;;;;;;;;;11.90;54.30;;;7.51;84.73;96103.28;4973491;28;20358;-45
2022/09/21 01:31:16;;;;;;;;;;;11.80;54.40;;;7.46;84.92;96101.34;4977709;28;19917;-44
2022/09/21 01:33:56;;;;;;;;;;;11.80;54.60;;;7.47;84.99;96102.97;4990289;28;19913;-44
2022/09/21 01:36:29;;;;;;;;;;;11.80;54.60;;;7.46;85.09;96097.88;4985360;28;19920;-44
2022/09/21 01:39:21;;;;;;;;;;;11.80;54.70;;;7.41;85.12;96101.22;4989598;28;19927;-44
2022/09/21 01:41:51;;;;;;;;;;;11.80;54.70;;;7.35;85.23;96104.81;4974197;28;19913;-45
2022/09/21 01:44:29;;;;;;;;;;;11.80;54.70;;;7.33;85.57;96106.88;4987739;28;20368;-43
2022/09/21 01:46:59;;;;;;;;;;;11.70;54.70;;;7.27;85.66;96105.13;4993335;28;20051;-45
2022/09/21 01:49:37;;;;;;;;;;;11.70;54.70;;;7.24;85.80;96103.78;4967408;28;19920;-43
2022/09/21 01:52:46;;;;;;;;;;;11.70;54.70;;;7.22;85.57;96103.19;4981697;28;20325;-45
2022/09/21 01:55:29;;;;;;;;;;;11.60;54.70;;;7.14;86.07;96098.22;4974688;28;19910;-44
2022/09/21 01:58:02;;;;;;;;;;;11.60;54.80;;;7.12;86.02;96106.41;4996731;28;19913;-46
2022/09/21 02:00:33;;;;;;;;;;;11.50;54.80;;;7.04;86.26;96100.66;4989162;28;19916;-47
2022/09/21 02:03:07;;;;;;;;;;;11.50;54.80;;;7.03;86.27;96099.03;4976734;28;20299;-48
2022/09/21 02:05:36;;;;;;;;;;;11.50;54.90;;;7.05;85.81;96089.00;4989087;28;19909;-45
2022/09/21 02:08:06;;;;;;;;;;;11.50;54.90;;;7.07;85.49;96102.84;4972272;28;19959;-45
2022/09/21 02:10:50;;;;;;;;;;;11.40;55.00;;;7.07;85.60;96094.88;4992571;28;19924;-45
2022/09/21 02:13:26;;;;;;;;;;;11.40;55.10;;;7.06;85.33;96091.44;4980423;28;19952;-44
2022/09/21 02:16:29;;;;;;;;;;;11.40;55.20;;;7.06;85.26;96101.22;4991611;28;19914;-44
2022/09/21 02:19:29;;;;;;;;;;;11.40;55.20;;;7.05;85.33;96100.44;4992193;28;19909;-44
2022/09/21 02:22:04;;;;;;;;;;;11.40;55.30;;;7.05;85.45;96092.47;4991568;28;19940;-45
2022/09/21 02:24:56;;;;;;;;;;;11.40;55.30;;;7.00;85.70;96094.19;4971457;28;19917;-47
2022/09/21 02:28:04;;;;;;;;;;;11.40;55.30;;;6.97;85.65;96095.47;4992412;28;19918;-44
2022/09/21 02:30:46;;;;;;;;;;;11.30;55.30;;;6.91;85.88;96101.66;4985789;28;19989;-44
2022/09/21 02:33:36;;;;;;;;;;;11.30;55.30;;;6.87;85.93;96097.88;4987183;28;19909;-44
2022/09/21 02:36:18;;;;;;;;;;;11.30;55.30;;;6.86;85.58;96094.44;4992177;28;20008;-44
2022/09/21 02:39:03;;;;;;;;;;;11.30;55.30;;;6.89;85.33;96098.44;4993470;28;19913;-44
2022/09/21 02:41:47;;;;;;;;;;;11.30;55.40;;;6.89;85.27;96090.50;4966406;28;19909;-46
2022/09/21 02:45:08;;;;;;;;;;;11.20;55.30;;;6.86;85.38;96093.59;4984889;28;19960;-46
2022/09/21 02:47:58;;;;;;;;;;;11.30;55.40;;;6.82;85.48;96087.94;4975124;28;20273;-44
2022/09/21 02:50:35;;;;;;;;;;;11.20;55.40;;;6.78;85.47;96094.75;4988286;28;19932;-45
2022/09/21 02:53:09;;;;;;;;;;;11.20;55.40;;;6.79;85.68;96101.66;4987619;28;19913;-43
2022/09/21 02:55:35;;;;;;;;;;;11.20;55.40;;;6.75;85.68;96095.19;4992225;28;20301;-44
2022/09/21 02:58:06;;;;;;;;;;;11.10;55.40;;;6.68;86.27;96094.50;4991534;28;19920;-46
2022/09/21 03:00:35;;;;;;;;;;;11.10;55.50;;;6.68;86.25;96092.66;4990127;28;19920;-46
2022/09/21 03:03:19;;;;;;;;;;;11.10;55.50;;;6.62;86.44;96092.75;4991172;28;19909;-45
2022/09/21 03:05:52;;;;;;;;;;;11.10;55.60;;;6.59;86.49;96094.00;4987524;28;19921;-44
2022/09/21 03:08:21;;;;;;;;;;;11.00;55.60;;;6.54;86.85;96096.53;4974340;28;19913;-46
2022/09/21 03:10:49;;;;;;;;;;;11.00;55.60;;;6.53;86.62;96099.41;4990817;28;19940;-45
2022/09/21 03:13:18;;;;;;;;;;;11.00;55.60;;;6.45;87.29;96095.22;4977244;28;19940;-44
2022/09/21 03:15:44;;;;;;;;;;;10.90;55.60;;;6.39;87.59;96096.13;4992247;28;19916;-45
2022/09/21 03:18:11;;;;;;;;;;;10.90;55.60;;;6.34;87.66;96093.38;4986952;28;19913;-45
2022/09/21 03:20:44;;;;;;;;;;;10.80;55.60;;;6.23;88.47;96097.56;4983960;28;20052;-43
2022/09/21 03:23:11;;;;;;;;;;;10.80;55.70;;;6.19;88.99;96099.06;4989990;28;19917;-43
2022/09/21 03:25:37;;;;;;;;;;;10.70;55.70;;;6.15;89.21;96106.63;4979628;28;20080;-46
2022/09/21 03:28:06;;;;;;;;;;;10.70;55.70;;;6.09;89.38;96093.50;4982868;28;20016;-44
2022/09/21 03:30:35;;;;;;;;;;;10.60;55.80;;;6.00;89.72;96104.38;4985328;28;19963;-45
2022/09/21 03:33:07;;;;;;;;;;;10.60;55.80;;;5.99;89.37;96100.13;4981886;28;19917;-45
2022/09/21 03:35:42;;;;;;;;;;;10.50;55.80;;;5.91;89.83;96099.59;4977099;28;19909;-46
2022/09/21 03:38:10;;;;;;;;;;;10.50;55.90;;;5.83;90.31;96111.28;4992122;28;19963;-44
2022/09/21 03:40:39;;;;;;;;;;;10.40;55.90;;;5.76;89.50;96110.53;4958420;28;20380;-52
2022/09/21 03:43:05;;;;;;;;;;;10.30;55.90;;;5.63;90.98;96114.13;4983571;28;19917;-51
2022/09/21 03:45:39;;;;;;;;;;;10.30;56.00;;;5.54;92.00;96113.59;4992044;28;20391;-44
2022/09/21 03:48:05;;;;;;;;;;;10.20;56.00;;;5.50;92.06;96101.88;4990701;28;19914;-46
2022/09/21 03:50:37;;;;;;;;;;;10.20;56.10;;;5.48;92.32;96111.03;4978933;28;19909;-44
2022/09/21 03:53:07;;;;;;;;;;;10.10;56.20;;;5.45;92.39;96100.91;4973212;28;20456;-44
2022/09/21 03:55:33;;;;;;;;;;;10.00;56.20;;;5.45;92.29;96108.84;4971602;28;19949;-44
2022/09/21 03:58:06;;;;;;;;;;;10.00;56.40;;;5.41;91.71;96108.47;4985341;28;20410;-44
2022/09/21 04:00:32;;;;;;;;;;;10.00;56.40;;;5.34;90.97;96111.19;4980408;28;19960;-45
2022/09/21 04:02:58;;;;;;;;;;;9.90;56.40;;;5.24;91.02;96113.53;4986142;28;19917;-44
2022/09/21 04:05:26;;;;;;;;;;;9.80;56.40;;;5.14;91.57;96109.75;4988923;28;19909;-45
2022/09/21 04:07:55;;;;;;;;;;;9.80;56.40;;;5.03;91.74;96112.06;4988950;28;20398;-44
2022/09/21 04:10:31;;;;;;;;;;;9.70;56.40;;;4.92;91.35;96115.44;4970868;28;19921;-45
2022/09/21 04:13:05;;;;;;;;;;;9.60;56.50;;;4.80;91.61;96110.03;4988133;28;19921;-44
2022/09/21 04:15:31;;;;;;;;;;;9.50;56.50;;;4.75;93.05;96109.06;5005846;28;19909;-44
2022/09/21 04:18:07;;;;;;;;;;;9.40;56.60;;;4.68;94.14;96117.03;4980734;28;20294;-44
2022/09/21 04:20:38;;;;;;;;;;;9.40;56.70;;;4.62;94.23;96115.25;4988978;28;19944;-44
2022/09/21 04:23:04;;;;;;;;;;;9.30;56.80;;;4.59;95.48;96116.47;4970391;28;20585;-45
2022/09/21 04:25:40;;;;;;;;;;;9.30;56.90;;;4.55;95.74;96111.84;4969519;28;19910;-44
2022/09/21 04:28:09;;;;;;;;;;;9.20;56.90;;;4.52;95.94;96120.19;4991478;28;19963;-44
2022/09/21 04:30:35;;;;;;;;;;;9.20;57.10;;;4.47;95.96;96112.91;4986396;28;20008;-44
2022/09/21 04:33:07;;;;;;;;;;;9.10;57.10;;;4.43;95.89;96117.00;4982023;28;19920;-44
2022/09/21 04:35:36;;;;;;;;;;;9.10;57.20;;;4.41;96.36;96119.03;4985148;28;20423;-44
2022/09/21 04:38:08;;;;;;;;;;;9.00;57.30;;;4.35;97.31;96117.22;4955231;28;19917;-44
2022/09/21 04:40:33;;;;;;;;;;;9.00;57.40;;;4.34;97.41;96113.78;4990552;28;19937;-44
2022/09/21 04:43:05;;;;;;;;;;;9.00;57.40;;;4.31;97.54;96116.84;4989297;28;20067;-48
2022/09/21 04:45:31;;;;;;;;;;;8.90;57.50;;;4.30;97.63;96111.81;4991402;28;20012;-43
2022/09/21 04:47:57;;;;;;;;;;;8.90;57.50;;;4.28;97.49;96117.28;5001936;28;20016;-44
2022/09/21 04:50:25;;;;;;;;;;;8.90;57.60;;;4.22;97.81;96118.13;4991224;28;19996;-44
2022/09/21 04:52:51;;;;;;;;;;;8.80;57.60;;;4.20;98.04;96119.34;4989266;28;19915;-46
2022/09/21 04:55:20;;;;;;;;;;;8.80;57.60;;;4.19;97.99;96118.53;4984683;28;19924;-44
2022/09/21 04:57:48;;;;;;;;;;;8.80;57.70;;;4.21;98.85;96123.63;4985409;28;19937;-44
2022/09/21 05:00:14;;;;;;;;;;;8.80;57.80;;;4.21;99.00;96120.97;4990034;28;20064;-44
2022/09/21 05:02:47;;;;;;;;;;;8.70;57.80;;;4.26;99.09;96123.78;5005578;28;19909;-44
2022/09/21 05:05:16;;;;;;;;;;;8.70;57.90;;;4.23;97.72;96122.41;4990123;28;19909;-44
2022/09/21 05:07:45;;;;;;;;;;;8.80;58.00;;;4.17;97.39;96125.88;4977080;28;20273;-45
2022/09/21 05:10:12;;;;;;;;;;;8.70;57.90;;;4.11;96.87;96124.06;4991088;28;20391;-46
2022/09/21 05:12:37;;;;;;;;;;;8.70;58.00;;;4.05;96.77;96131.00;4987118;28;20390;-44
2022/09/21 05:15:04;;;;;;;;;;;8.70;58.00;;;4.00;96.91;96130.78;4989389;28;19916;-44
2022/09/21 05:17:33;;;;;;;;;;;8.70;58.00;;;3.97;97.92;96141.75;4983492;28;19920;-43
2022/09/21 05:20:05;;;;;;;;;;;8.60;58.00;;;3.98;97.20;96137.28;4994910;28;20287;-45
2022/09/21 05:22:34;;;;;;;;;;;8.60;58.00;;;3.95;97.41;96138.53;4994655;28;20055;-46
2022/09/21 05:25:09;;;;;;;;;;;8.60;58.10;;;3.93;97.13;96144.00;4984980;28;19916;-49
2022/09/21 05:27:35;;;;;;;;;;;8.60;58.10;;;3.90;96.86;96141.78;4996739;28;20063;-44
2022/09/21 05:30:01;;;;;;;;;;;8.60;58.20;;;3.86;98.06;96139.78;5009185;28;20008;-45
2022/09/21 05:32:47;;;;;;;;;;;8.60;58.20;;;3.87;98.10;96144.84;4992920;28;19913;-45
2022/09/21 05:35:50;;;;;;;;;;;8.50;58.20;;;3.84;98.33;96145.25;4991573;28;19920;-43
2022/09/21 05:38:21;;;;;;;;;;;8.50;58.20;;;3.87;99.35;96139.56;4988414;28;19909;-46
2022/09/21 05:40:49;;;;;;;;;;;8.60;58.40;;;3.87;99.08;96144.84;4969329;28;19913;-47
2022/09/21 05:43:16;;;;;;;;;;;8.50;58.40;;;3.90;99.41;96149.69;4978671;28;20023;-44
2022/09/21 05:45:57;;;;;;;;;;;8.60;58.50;;;3.92;99.64;96139.78;4982555;28;19909;-46
2022/09/21 05:48:40;;;;;;;;;;;8.60;58.50;;;3.92;98.45;96145.03;4982486;28;20288;-45
2022/09/21 05:51:28;;;;;;;;;;;8.60;58.50;;;3.90;98.13;96148.91;4992384;28;20327;-43
2022/09/21 05:54:44;;;;;;;;;;;8.60;58.50;;;3.85;98.16;96157.41;4983844;28;20402;-45
2022/09/21 05:57:57;;;;;;;;;;;8.60;58.50;;;3.84;98.68;96157.63;4975971;28;20388;-45
2022/09/21 06:00:23;;;;;;;;;;;8.60;58.60;;;3.88;99.26;96151.72;4992758;28;19916;-44
2022/09/21 06:03:23;;;;;;;;;;;8.70;58.70;;;3.89;98.96;96149.91;4975060;28;19914;-47
2022/09/21 06:05:50;;;;;;;;;;;8.70;58.70;;;3.93;99.75;96154.56;4992829;28;19995;-46
2022/09/21 06:08:16;;;;;;;;;;;8.70;58.80;;;3.99;99.79;96152.13;4985818;28;19914;-44
2022/09/21 06:10:42;;;;;;;;;;;8.70;58.80;;;4.02;99.63;96154.34;4989363;28;19917;-44
2022/09/21 06:13:10;;;;;;;;;;;8.80;58.90;;;4.04;100.00;96149.63;4990397;28;19921;-48
2022/09/21 06:15:40;;;;;;;;;;;8.80;58.90;;;4.28;100.00;96156.84;4993350;28;20004;-44
2022/09/21 06:18:10;;;;;;;;;;;8.90;59.00;;;4.61;100.00;96147.94;4982485;28;19917;-47
2022/09/21 06:20:39;;;;;;;;;;;9.00;59.30;;;4.87;100.00;96153.03;4993423;28;19909;-44
2022/09/21 06:23:17;;;;;;;;;;;9.20;59.60;;;5.17;100.00;96151.56;4990942;28;20271;-46
2022/09/21 06:25:54;;;;;;;;;;;9.30;59.80;;;5.34;100.00;96148.16;4981018;28;19910;-47
2022/09/21 06:28:20;;;;;;;;;;;9.60;59.90;;;5.49;100.00;96157.59;4992233;28;19914;-47
2022/09/21 06:30:56;;;;;;;;;;;9.70;59.90;;;5.62;100.00;96157.47;4995598;28;19918;-45
2022/09/21 06:33:25;;;;;;;;;;;9.90;59.90;;;5.78;100.00;96150.78;4987077;28;19909;-47
2022/09/21 06:35:52;;;;;;;;;;;10.10;59.90;;;5.94;99.14;96155.50;4980255;28;19909;-47
2022/09/21 06:38:18;;;;;;;;;;;10.30;59.80;;;6.08;97.84;96152.69;4982447;28;19991;-49
2022/09/21 06:40:46;;;;;;;;;;;10.50;59.80;;;6.25;97.17;96145.78;4978008;28;20015;-44
2022/09/21 06:43:12;;;;;;;;;;;10.80;59.50;;;6.49;96.34;96138.75;4973919;28;20293;-45
2022/09/21 06:45:38;;;;;;;;;;;11.10;59.30;;;6.84;94.59;96148.66;4975285;28;19920;-45
2022/09/21 06:48:09;;;;;;;;;;;11.60;59.10;;;7.27;91.69;96152.84;4990042;28;19992;-44
2022/09/21 06:50:43;;;;;;;;;;;12.10;58.90;;;7.64;89.01;96143.63;4992606;28;19948;-43
2022/09/21 06:53:12;;;;;;;;;;;12.60;58.60;;;7.86;86.42;96145.66;4989834;28;21772;-44
2022/09/21 06:55:38;;;;;;;;;;;13.10;58.40;;;8.21;84.99;96144.78;4976807;28;20024;-45
2022/09/21 06:58:06;;;;;;;;;;;13.60;58.00;;;8.41;83.96;96149.72;4977246;28;19949;-45
2022/09/21 07:00:32;;;;;;;;;;;13.90;57.60;;;8.78;81.75;96147.47;4975691;28;19920;-45
2022/09/21 07:02:58;;;;;;;;;;;14.30;57.20;;;8.89;80.38;96151.09;4966113;28;19909;-45
2022/09/21 07:05:25;;;;;;;;;;;14.80;56.80;;;9.27;79.96;96155.72;4980201;28;19986;-47
2022/09/21 07:07:57;;;;;;;;;;;15.10;56.30;;;9.60;77.66;96146.91;4976122;28;19960;-44
2022/09/21 07:10:24;;;;;;;;;;;15.40;56.00;;;9.79;75.80;96155.44;4983282;28;20366;-44
2022/09/21 07:12:53;;;;;;;;;;;15.80;56.20;;;10.07;74.96;96154.47;4979250;28;19967;-44
2022/09/21 07:15:20;;;;;;;;;;;16.10;55.20;;;10.29;74.12;96154.50;4940036;28;19914;-45
2022/09/21 07:17:48;;;;;;;;;;;16.40;54.90;;;10.15;73.42;96153.22;4984979;28;19964;-46
2022/09/21 07:20:14;;;;;;;;;;;16.70;54.50;;;10.33;73.65;96157.47;5000106;28;20016;-47
2022/09/21 07:22:43;;;;;;;;;;;16.90;54.00;;;10.51;71.93;96149.16;4992695;28;19963;-44
2022/09/21 07:25:12;;;;;;;;;;;17.10;53.60;;;10.39;71.25;96153.81;4991866;28;19935;-44
2022/09/21 07:27:50;;;;;;;;;;;17.40;53.20;;;10.37;72.01;96150.59;4964538;28;19917;-46
2022/09/21 07:30:15;;;;;;;;;;;17.50;52.70;;;10.86;70.94;96150.56;4971970;28;20284;-45
2022/09/21 07:32:41;;;;;;;;;;;17.70;52.50;;;11.12;69.63;96154.25;4971729;28;19917;-45
2022/09/21 07:35:07;;;;;;;;;;;17.80;52.30;;;11.11;68.76;96152.66;4971876;28;20394;-45
2022/09/21 07:37:41;;;;;;;;;;;18.00;52.20;;;11.39;68.40;96153.44;4985241;28;19917;-45
2022/09/21 07:40:08;;;;;;;;;;;18.20;51.80;;;11.53;67.69;96157.25;4990606;28;19917;-45
2022/09/21 07:42:34;;;;;;;;;;;18.40;51.50;;;11.62;66.36;96160.25;4977325;28;20012;-45
2022/09/21 07:45:00;;;;;;;;;;;18.60;51.20;;;11.64;67.02;96158.13;4977630;28;20032;-45
2022/09/21 07:47:26;;;;;;;;;;;18.70;50.80;;;11.80;66.39;96157.16;4978915;28;19917;-45
2022/09/21 07:49:53;;;;;;;;;;;18.90;50.60;;;12.00;66.20;96145.81;4975303;28;19960;-48
2022/09/21 07:52:18;;;;;;;;;;;19.10;50.40;;;12.25;63.98;96151.31;4979237;28;19945;-45
2022/09/21 07:54:44;;;;;;;;;;;19.20;50.20;;;12.03;64.49;96159.47;4976848;28;20028;-45
2022/09/21 07:59:57;;;;;;;;;;;19.50;49.50;;;12.24;64.58;96155.03;4977776;28;19954;-45
2022/09/21 08:02:26;;;;;;;;;;;19.60;49.20;;;12.58;63.98;96151.13;4976209;28;19980;-46
2022/09/21 08:04:54;;;;;;;;;;;19.80;49.20;;;12.66;62.28;96153.28;4978361;28;19913;-47
2022/09/21 08:07:20;;;;;;;;;;;19.90;49.00;;;12.55;63.25;96149.00;4986630;28;19945;-48
2022/09/21 08:09:48;;;;;;;;;;;20.00;48.50;;;12.44;63.06;96140.94;4982916;28;19996;-47
2022/09/21 08:12:17;;;;;;;;;;;20.10;48.10;;;12.72;62.18;96139.69;4981568;28;19972;-49
2022/09/21 08:14:43;;;;;;;;;;;20.20;47.80;;;12.66;62.40;96145.25;4980205;28;19916;-50
2022/09/21 08:17:09;;;;;;;;;;;20.30;47.60;;;12.67;62.69;96136.19;4987919;28;19917;-48
2022/09/21 08:19:35;;;;;;;;;;;20.40;47.30;;;12.65;62.00;96141.78;4989742;28;19918;-48
2022/09/21 08:22:01;;;;;;;;;;;20.40;47.10;;;12.86;62.00;96141.84;4990044;28;19909;-49
2022/09/21 08:24:30;;;;;;;;;;;20.50;46.90;;;13.02;60.92;96131.97;4990558;28;19959;-48
2022/09/21 08:26:56;;;;;;;;;;;20.70;46.80;;;13.12;60.24;96148.03;4991247;28;19910;-46
2022/09/21 08:29:31;;;;;;;;;;;20.70;46.50;;;13.27;59.33;96141.91;4977267;28;19932;-48
2022/09/21 08:32:00;;;;;;;;;;;20.80;46.40;;;13.32;59.61;96142.72;4933994;28;27669;-48
2022/09/21 08:34:28;;;;;;;;;;;20.90;46.00;;;13.48;58.25;96148.06;4980059;28;19910;-49
2022/09/21 08:36:57;;;;;;;;;;;21.00;45.90;;;13.41;57.83;96143.78;4990077;28;19909;-48
2022/09/21 08:39:26;;;;;;;;;;;21.10;45.40;;;13.51;57.91;96148.31;4990969;28;19924;-51
2022/09/21 08:42:07;;;;;;;;;;;21.20;45.20;;;13.54;58.10;96136.28;4984809;28;19999;-55
2022/09/21 08:44:55;;;;;;;;;;;21.30;44.90;;;13.57;56.52;96136.53;4972732;28;20005;-49
2022/09/21 08:47:42;;;;;;;;;;;21.40;44.50;;;13.73;56.51;96139.19;4974353;28;19917;-48
2022/09/21 08:50:51;;;;;;;;;;;21.40;44.30;;;13.75;56.20;96137.84;4989429;28;20007;-48
2022/09/21 08:53:43;;;;;;;;;;;21.50;44.00;;;13.97;55.79;96150.09;5008912;28;19916;-47
2022/09/21 08:56:15;;;;;;;;;;;21.60;43.80;;;13.78;56.96;96148.00;4993877;28;19910;-48
2022/09/21 08:58:49;;;;;;;;;;;21.70;43.70;;;14.21;56.45;96148.44;4993632;28;19913;-52
2022/09/21 09:01:18;;;;;;;;;;;21.90;43.80;;;14.45;54.53;96131.75;4991667;28;19963;-49
2022/09/21 09:04:19;;;;;;;;;;;22.10;43.60;;;14.51;54.15;96138.72;4985157;28;19959;-52
2022/09/21 09:07:50;;;;;;;;;;;22.20;43.20;;;14.37;53.79;96137.66;4982779;28;19921;-51
2022/09/21 09:10:55;;;;;;;;;;;22.30;42.80;;;14.47;54.66;96134.91;4984335;28;19921;-49
2022/09/21 09:14:17;;;;;;;;;;;22.40;42.40;;;14.66;53.41;96127.88;4993483;28;20295;-49
2022/09/21 09:16:48;;;;;;;;;;;22.50;42.00;;;14.57;53.19;96124.19;4994776;28;20335;-52
2022/09/21 09:19:34;;;;;;;;;;;22.60;41.60;;;14.68;53.57;96130.28;4992338;28;19910;-50
2022/09/21 09:22:06;;;;;;;;;;;22.60;41.40;;;14.78;53.58;96132.91;4993177;28;19924;-50
2022/09/21 09:24:42;;;;;;;;;;;22.80;41.40;;;14.82;52.71;96125.91;4992713;28;19909;-50
2022/09/21 09:27:32;;;;;;;;;;;22.80;41.10;;;14.90;52.58;96136.06;4993301;28;20353;-51
2022/09/21 09:30:04;;;;;;;;;;;23.00;41.10;;;14.69;51.79;96131.88;4984506;28;19964;-56
2022/09/21 09:32:57;;;;;;;;;;;23.10;40.80;;;14.79;51.64;96129.13;4989195;28;19948;-49
2022/09/21 09:35:54;;;;;;;;;;;23.10;40.50;;;14.76;52.32;96119.78;4991892;28;19910;-52
2022/09/21 09:38:46;;;;;;;;;;;23.10;40.10;;;15.22;50.92;96111.41;4983103;28;19916;-50
2022/09/21 09:41:30;;;;;;;;;;;23.20;40.20;;;15.42;50.37;96110.44;4992285;28;20536;-50
2022/09/21 09:44:20;;;;;;;;;;;23.40;40.00;;;15.48;49.91;96114.69;4993747;28;19992;-50
2022/09/21 09:47:35;;;;;;;;;;;23.50;39.60;;;15.79;49.65;96113.59;4985602;28;19932;-48
2022/09/21 09:50:35;;;;;;;;;;;23.70;39.60;;;15.81;48.59;96098.81;4974021;28;19913;-49
2022/09/21 09:53:20;;;;;;;;;;;23.80;39.10;;;15.85;48.02;96086.41;4983975;28;19956;-49
2022/09/21 09:55:56;;;;;;;;;;;23.90;38.60;;;16.11;48.35;96088.81;4973479;28;19910;-50
2022/09/21 09:59:05;;;;;;;;;;;24.00;39.10;;;15.85;48.04;96094.47;4972807;28;20368;-46
2022/09/21 10:02:03;;;;;;;;;;;24.10;38.20;;;15.93;47.27;96085.78;4987249;28;20292;-48
2022/09/21 10:05:05;;;;;;;;;;;24.20;38.00;;;16.01;45.59;96083.53;4992788;28;19909;-48
2022/09/21 10:07:44;;;;;;;;;;;24.30;37.70;;;15.69;46.07;96066.97;4982876;28;20323;-48
2022/09/21 10:10:31;;;;;;;;;;;24.40;37.10;;;15.57;46.68;96081.84;4992232;28;19959;-50
2022/09/21 10:13:32;;;;;;;;;;;24.40;36.60;;;15.79;46.86;96070.63;4992302;28;20316;-53
2022/09/21 10:16:24;;;;;;;;;;;24.40;36.30;;;15.80;44.60;96064.97;4964279;28;20386;-51
2022/09/21 10:19:02;;;;;;;;;;;24.40;36.10;;;16.32;45.58;96059.78;4952560;28;20169;-49
2022/09/21 10:21:39;;;;;;;;;;;24.50;36.20;;;16.62;45.47;96064.75;4972621;28;20000;-48
2022/09/21 10:24:21;;;;;;;;;;;24.60;36.20;;;16.73;43.52;96051.94;4981129;28;19909;-51
2022/09/21 10:27:41;;;;;;;;;;;24.80;36.10;;;16.82;44.34;96063.66;4993528;28;19913;-50
2022/09/21 10:30:29;;;;;;;;;;;24.90;35.70;;;16.99;43.62;96048.91;4920970;29;19918;-48
2022/09/21 10:32:59;;;;;;;;;;;25.10;35.60;;;17.25;42.34;96060.03;4933262;29;19910;-49
2022/09/21 10:35:52;;;;;;;;;;;25.20;35.40;;;16.51;42.20;96046.34;4966607;28;19909;-48
2022/09/21 10:38:27;;;;;;;;;;;25.40;35.10;;;16.53;42.40;96047.66;4975813;28;19913;-48
2022/09/21 10:40:54;;;;;;;;;;;25.40;34.50;;;17.04;43.19;96054.19;4991758;28;19925;-48
2022/09/21 10:43:44;;;;;;;;;;;25.50;34.60;;;17.57;42.40;96059.19;4956550;28;19916;-47
2022/09/21 10:46:16;;;;;;;;;;;25.70;34.70;;;17.70;41.15;96054.91;5004793;28;20019;-48
2022/09/21 10:48:48;;;;;;;;;;;25.80;34.40;;;17.79;40.26;96058.53;4986714;28;20380;-49
2022/09/21 10:51:29;;;;;;;;;;;26.00;34.40;;;17.38;40.76;96058.47;4972542;28;20012;-48
2022/09/21 10:53:57;;;;;;;;;;;26.10;33.90;;;17.10;40.88;96067.25;4971971;28;19918;-49
2022/09/21 10:56:29;;;;;;;;;;;26.20;33.50;;;16.86;41.20;96040.47;4991829;28;20364;-51
2022/09/21 10:59:27;;;;;;;;;;;26.20;33.10;;;17.07;40.36;96048.22;4990299;28;19910;-49
2022/09/21 11:01:57;;;;;;;;;;;26.20;33.00;;;17.06;40.73;96042.03;4981185;28;20000;-49
2022/09/21 11:04:44;;;;;;;;;;;26.20;32.80;;;17.42;40.19;96046.78;4972298;28;19910;-51
2022/09/21 11:07:42;;;;;;;;;;;26.30;32.90;;;17.46;40.78;96055.09;4958296;28;19909;-46
2022/09/21 11:10:20;;;;;;;;;;;26.40;32.70;;;17.83;40.72;96040.72;4991025;28;20284;-53
2022/09/21 11:13:08;;;;;;;;;;;26.40;32.60;;;18.15;40.52;96047.88;4982011;28;20376;-50
2022/09/21 11:16:43;;;;;;;;;;;26.60;32.40;;;18.07;38.84;96040.47;4971684;28;19937;-47
2022/09/21 11:19:31;;;;;;;;;;;26.70;32.20;;;18.07;38.91;96043.16;4913569;29;19938;-48
2022/09/21 11:22:07;;;;;;;;;;;26.90;31.80;;;18.02;38.45;96043.28;4970499;28;19945;-48
2022/09/21 11:25:29;;;;;;;;;;;27.00;31.70;;;17.70;39.08;96042.25;4973097;28;20396;-50
2022/09/21 11:28:12;;;;;;;;;;;27.00;31.30;;;17.97;39.78;96036.09;4937786;28;20336;-50
2022/09/21 11:31:25;;;;;;;;;;;27.10;31.30;;;18.24;38.73;96040.66;4990819;28;19913;-51
2022/09/21 11:34:11;;;;;;;;;;;27.20;31.20;;;18.18;38.93;96022.22;4985629;28;19916;-48
2022/09/21 11:37:12;;;;;;;;;;;27.40;31.10;;;18.21;38.44;96027.00;4985853;28;19914;-49
2022/09/21 11:40:34;;;;;;;;;;;27.50;30.90;;;18.33;39.37;96011.06;4972261;28;20488;-49
2022/09/21 11:43:41;;;;;;;;;;;27.70;31.00;;;18.26;37.69;96018.78;4988540;28;19910;-49
2022/09/21 11:47:04;;;;;;;;;;;27.80;30.50;;;17.54;40.40;96025.56;4992099;28;20386;-49
2022/09/21 11:50:25;;;;;;;;;;;27.70;30.10;;;17.94;40.25;96017.03;4904953;29;19915;-51
2022/09/21 11:53:05;;;;;;;;;;;27.70;30.00;;;18.02;39.07;96010.94;4972382;28;20296;-48
2022/09/21 11:55:52;;;;;;;;;;;27.70;30.20;;;17.85;37.60;96002.66;4971195;28;19917;-49
2022/09/21 11:58:36;;;;;;;;;;;27.80;30.20;;;17.01;39.63;96007.13;4980143;28;19963;-53
2022/09/21 12:01:38;;;;;;;;;;;27.70;29.90;;;16.97;38.65;96002.63;4984027;28;19917;-49
2022/09/21 12:04:57;;;;;;;;;;;27.60;29.70;;;17.46;40.01;96009.31;4971077;28;19948;-49
2022/09/21 12:07:48;;;;;;;;;;;27.50;29.60;;;17.98;39.59;95985.69;4989909;28;19975;-49
2022/09/21 12:11:01;;;;;;;;;;;27.50;29.70;;;18.23;38.35;96000.50;4993703;28;19920;-51
2022/09/21 12:13:54;;;;;;;;;;;27.50;29.80;;;17.98;38.96;95985.69;4972001;28;20000;-48
2022/09/21 12:16:44;;;;;;;;;;;27.60;29.80;;;18.50;37.76;95991.56;4972454;28;20337;-51
2022/09/21 12:19:55;;;;;;;;;;;27.70;29.80;;;18.42;37.51;95997.66;4980288;28;19989;-49